Time;durP1;ratioP1;P1;durP2;ratioP2;P2;SDS_P1;SDS_P2;PMS_P1;PMS_P2;Temp;Humidity;BMP_temperature;BMP_pressure;BME280_temperature;BME280_humidity;BME280_pressure;Samples;Min_cycle;Max_cycle;Signal;HPM_P1;HPM_P2
2022/09/25 00:01:22;;;;;;;4.50;2.22;;;;;;;;;;10282067;28;20071;-69
2022/09/25 00:06:24;;;;;;;3.83;2.55;;;;;;;;;;10281894;28;20106;-69
2022/09/25 00:11:26;;;;;;;2.83;2.28;;;;;;;;;;10284742;28;20084;-68
2022/09/25 00:16:26;;;;;;;3.97;2.20;;;;;;;;;;10280417;28;20069;-70
2022/09/25 00:21:30;;;;;;;5.43;2.45;;;;;;;;;;10286252;28;20092;-68
2022/09/25 00:26:31;;;;;;;3.47;3.13;;;;;;;;;;10287563;28;20498;-70
2022/09/25 00:31:29;;;;;;;2.35;2.15;;;;;;;;;;10274410;28;20088;-69
2022/09/25 00:36:28;;;;;;;5.90;2.53;;;;;;;;;;10287888;28;20522;-68
2022/09/25 00:41:27;;;;;;;4.78;2.50;;;;;;;;;;10280484;28;20085;-69
2022/09/25 00:46:28;;;;;;;4.03;2.60;;;;;;;;;;10280069;28;20068;-69
2022/09/25 00:51:28;;;;;;;2.30;2.10;;;;;;;;;;10281848;28;20477;-69
2022/09/25 00:56:28;;;;;;;2.88;2.20;;;;;;;;;;10280769;28;20471;-69
2022/09/25 01:01:28;;;;;;;2.75;2.55;;;;;;;;;;10280046;28;20061;-69
2022/09/25 01:06:27;;;;;;;3.10;2.80;;;;;;;;;;10275160;28;20091;-69
2022/09/25 01:11:25;;;;;;;3.10;2.50;;;;;;;;;;10280306;28;20087;-69
2022/09/25 01:16:30;;;;;;;3.03;2.72;;;;;;;;;;10281624;28;20206;-69
2022/09/25 01:21:33;;;;;;;6.37;2.77;;;;;;;;;;10284297;28;20067;-69
2022/09/25 01:26:49;;;;;;;4.93;2.42;;;;;;;;;;10300563;28;20073;-70
2022/09/25 01:31:54;;;;;;;4.45;2.50;;;;;;;;;;10279265;28;20080;-68
2022/09/25 01:36:56;;;;;;;4.20;2.40;;;;;;;;;;10288600;28;20080;-69
2022/09/25 01:41:56;;;;;;;3.83;2.75;;;;;;;;;;10288478;28;20073;-69
2022/09/25 01:46:59;;;;;;;2.88;2.58;;;;;;;;;;10287293;28;20123;-69
2022/09/25 01:51:58;;;;;;;5.45;2.50;;;;;;;;;;10287439;28;20079;-69
2022/09/25 01:56:58;;;;;;;3.20;2.15;;;;;;;;;;10288194;28;20510;-68
2022/09/25 02:01:59;;;;;;;3.70;2.45;;;;;;;;;;10286025;28;20060;-68
2022/09/25 02:07:00;;;;;;;3.20;2.55;;;;;;;;;;10288063;28;20076;-68
2022/09/25 02:12:00;;;;;;;5.05;2.47;;;;;;;;;;10287146;28;20080;-68
2022/09/25 02:17:00;;;;;;;3.28;2.30;;;;;;;;;;10286564;28;20064;-69
2022/09/25 02:22:03;;;;;;;4.05;2.63;;;;;;;;;;10287288;28;20068;-68
2022/09/25 02:27:01;;;;;;;2.75;2.08;;;;;;;;;;10285516;28;20083;-69
2022/09/25 02:32:03;;;;;;;4.63;2.80;;;;;;;;;;10285327;28;20465;-69
2022/09/25 02:37:02;;;;;;;3.35;3.03;;;;;;;;;;10286817;28;20045;-69
2022/09/25 02:42:06;;;;;;;6.20;3.95;;;;;;;;;;10286130;28;20463;-69
2022/09/25 02:47:13;;;;;;;6.65;5.72;;;;;;;;;;10286090;28;20068;-69
2022/09/25 02:52:13;;;;;;;6.82;5.38;;;;;;;;;;10284662;28;20482;-69
2022/09/25 02:57:14;;;;;;;7.07;6.38;;;;;;;;;;10285715;28;20069;-67
2022/09/25 03:02:14;;;;;;;6.97;6.25;;;;;;;;;;10292152;28;20414;-69
2022/09/25 03:07:12;;;;;;;6.50;5.57;;;;;;;;;;10290832;28;20079;-68
2022/09/25 03:12:11;;;;;;;6.95;5.93;;;;;;;;;;10276464;28;20084;-69
2022/09/25 03:17:10;;;;;;;7.47;6.05;;;;;;;;;;10290854;28;20041;-68
2022/09/25 03:22:10;;;;;;;5.80;5.15;;;;;;;;;;10282623;28;20514;-69
2022/09/25 03:27:09;;;;;;;6.18;5.10;;;;;;;;;;10286355;28;20088;-68
2022/09/25 03:32:09;;;;;;;6.68;5.13;;;;;;;;;;10283995;28;20064;-69
2022/09/25 03:37:07;;;;;;;7.65;4.80;;;;;;;;;;10283550;28;20069;-68
2022/09/25 03:42:10;;;;;;;9.68;5.35;;;;;;;;;;10284015;28;20080;-68
2022/09/25 03:47:08;;;;;;;6.10;5.20;;;;;;;;;;10283493;28;20072;-69
2022/09/25 03:52:13;;;;;;;12.10;6.05;;;;;;;;;;10284009;28;20362;-68
2022/09/25 03:57:13;;;;;;;6.72;5.97;;;;;;;;;;10285718;28;20079;-69
2022/09/25 04:02:12;;;;;;;9.05;5.90;;;;;;;;;;10286407;28;20076;-69
2022/09/25 04:07:10;;;;;;;7.80;6.20;;;;;;;;;;10282823;28;20072;-68
2022/09/25 04:12:10;;;;;;;7.50;5.60;;;;;;;;;;10281028;28;20064;-68
2022/09/25 04:17:09;;;;;;;4.90;4.40;;;;;;;;;;10283608;28;20068;-68
2022/09/25 04:22:07;;;;;;;5.88;4.97;;;;;;;;;;10282391;28;20073;-68
2022/09/25 04:27:07;;;;;;;7.05;4.40;;;;;;;;;;10283269;28;20073;-69
2022/09/25 04:37:25;;;;;;;7.85;5.30;;;;;;;;;;10282325;28;20084;-69
2022/09/25 04:42:24;;;;;;;9.55;5.10;;;;;;;;;;10275596;28;20077;-69
2022/09/25 04:47:22;;;;;;;5.63;5.03;;;;;;;;;;10280703;28;20540;-68
2022/09/25 04:52:20;;;;;;;6.63;4.40;;;;;;;;;;10278268;28;20045;-69
2022/09/25 04:57:21;;;;;;;9.10;5.05;;;;;;;;;;10282044;28;20072;-69
2022/09/25 05:02:39;;;;;;;6.85;5.68;;;;;;;;;;10300270;28;20065;-68
2022/09/25 05:07:38;;;;;;;7.28;5.97;;;;;;;;;;10289627;28;20049;-69
2022/09/25 05:12:40;;;;;;;7.57;6.70;;;;;;;;;;10295102;28;20072;-69
2022/09/25 05:17:38;;;;;;;6.45;5.80;;;;;;;;;;10288487;28;20086;-69
2022/09/25 05:22:36;;;;;;;11.02;7.18;;;;;;;;;;10290467;28;20110;-69
2022/09/25 05:27:35;;;;;;;15.65;7.80;;;;;;;;;;10283933;28;20083;-68
2022/09/25 05:32:36;;;;;;;12.43;8.05;;;;;;;;;;10296670;28;20099;-69
2022/09/25 05:37:35;;;;;;;13.93;8.63;;;;;;;;;;10284781;28;20068;-69
2022/09/25 05:42:33;;;;;;;14.60;9.35;;;;;;;;;;10287456;28;20514;-69
2022/09/25 05:47:32;;;;;;;12.65;8.77;;;;;;;;;;10291694;28;20068;-69
2022/09/25 05:52:31;;;;;;;11.57;7.90;;;;;;;;;;10283238;28;20073;-69
2022/09/25 05:57:31;;;;;;;17.65;9.05;;;;;;;;;;10288498;28;20065;-68
2022/09/25 06:02:29;;;;;;;15.70;11.38;;;;;;;;;;10282580;28;20111;-68
2022/09/25 06:07:27;;;;;;;16.60;10.65;;;;;;;;;;10281522;28;20072;-69
2022/09/25 06:12:28;;;;;;;20.67;10.02;;;;;;;;;;10284251;28;20083;-70
2022/09/25 06:17:26;;;;;;;10.32;8.75;;;;;;;;;;10281671;28;20075;-68
2022/09/25 06:22:25;;;;;;;10.00;8.63;;;;;;;;;;10291750;28;20075;-68
2022/09/25 06:27:23;;;;;;;9.70;8.25;;;;;;;;;;10285735;28;20079;-67
2022/09/25 06:32:23;;;;;;;17.17;7.53;;;;;;;;;;10281867;28;20075;-68
2022/09/25 06:37:21;;;;;;;9.43;7.95;;;;;;;;;;10283103;28;20759;-68
2022/09/25 06:42:19;;;;;;;10.18;7.35;;;;;;;;;;10286775;28;20056;-68
2022/09/25 06:47:18;;;;;;;10.13;7.20;;;;;;;;;;10296670;28;20121;-68
2022/09/25 06:52:23;;;;;;;11.98;8.15;;;;;;;;;;10289547;28;20060;-68
2022/09/25 06:57:21;;;;;;;13.77;7.95;;;;;;;;;;10288014;28;20472;-68
2022/09/25 07:07:35;;;;;;;14.10;7.80;;;;;;;;;;10271015;28;20084;-68
2022/09/25 07:12:33;;;;;;;19.02;11.70;;;;;;;;;;10290180;28;20542;-67
2022/09/25 07:17:32;;;;;;;11.13;9.07;;;;;;;;;;10282120;28;20071;-67
2022/09/25 07:22:30;;;;;;;13.35;7.97;;;;;;;;;;10282011;28;20068;-68
2022/09/25 07:27:30;;;;;;;9.15;6.65;;;;;;;;;;10283954;28;20076;-68
2022/09/25 07:32:30;;;;;;;20.52;10.52;;;;;;;;;;10291131;28;20044;-68
2022/09/25 07:37:28;;;;;;;12.90;8.10;;;;;;;;;;10289055;28;20469;-67
2022/09/25 07:42:27;;;;;;;12.07;9.35;;;;;;;;;;10290414;28;20079;-68
2022/09/25 07:47:26;;;;;;;10.85;6.93;;;;;;;;;;10285969;28;20091;-67
2022/09/25 07:52:24;;;;;;;9.23;6.93;;;;;;;;;;10282548;28;20071;-68
2022/09/25 07:57:23;;;;;;;17.63;11.98;;;;;;;;;;10281134;28;20091;-69
2022/09/25 08:02:21;;;;;;;13.75;8.15;;;;;;;;;;10281234;28;20079;-68
2022/09/25 08:07:21;;;;;;;14.90;9.85;;;;;;;;;;10284180;28;20068;-68
2022/09/25 08:12:19;;;;;;;11.38;6.30;;;;;;;;;;10284894;28;20064;-68
2022/09/25 08:17:17;;;;;;;10.75;6.25;;;;;;;;;;10291568;28;20481;-67
2022/09/25 08:22:15;;;;;;;10.05;4.28;;;;;;;;;;10281571;28;20073;-68
2022/09/25 08:27:15;;;;;;;15.05;7.63;;;;;;;;;;10283211;28;20080;-68
2022/09/25 08:32:13;;;;;;;10.98;5.72;;;;;;;;;;10285201;28;20509;-67
2022/09/25 08:37:12;;;;;;;8.68;5.50;;;;;;;;;;10288887;28;20099;-67
2022/09/25 08:42:14;;;;;;;17.92;8.60;;;;;;;;;;10286529;28;20080;-66
2022/09/25 08:52:32;;;;;;;6.28;4.25;;;;;;;;;;10292088;28;20120;-67
2022/09/25 08:57:33;;;;;;;6.53;4.72;;;;;;;;;;10293272;28;20080;-66
2022/09/25 09:02:38;;;;;;;7.68;4.60;;;;;;;;;;10286422;28;20060;-67
2022/09/25 09:07:38;;;;;;;7.15;4.85;;;;;;;;;;10287787;28;20064;-67
2022/09/25 09:12:39;;;;;;;8.27;4.10;;;;;;;;;;10289507;28;20079;-67
2022/09/25 09:17:41;;;;;;;4.45;3.55;;;;;;;;;;10288879;28;20071;-67
2022/09/25 09:22:42;;;;;;;4.85;3.78;;;;;;;;;;10288391;28;20482;-67
2022/09/25 09:27:52;;;;;;;5.00;3.70;;;;;;;;;;10291219;28;20075;-67
2022/09/25 09:33:03;;;;;;;3.50;3.17;;;;;;;;;;10291698;28;20079;-68
2022/09/25 09:38:07;;;;;;;4.35;3.95;;;;;;;;;;10293583;28;20052;-67
2022/09/25 09:43:09;;;;;;;4.57;3.40;;;;;;;;;;10273905;28;20930;-67
2022/09/25 09:48:13;;;;;;;5.22;3.53;;;;;;;;;;10280580;28;20072;-69
2022/09/25 09:53:18;;;;;;;6.68;3.85;;;;;;;;;;10283330;28;20069;-67
2022/09/25 09:58:19;;;;;;;8.75;5.20;;;;;;;;;;10292926;28;20069;-67
2022/09/25 10:03:22;;;;;;;4.15;3.38;;;;;;;;;;10286880;28;20076;-66
2022/09/25 10:08:21;;;;;;;4.30;3.70;;;;;;;;;;10284632;28;20081;-67
2022/09/25 10:13:20;;;;;;;5.70;3.50;;;;;;;;;;10276789;28;20061;-68
2022/09/25 10:18:21;;;;;;;3.65;3.33;;;;;;;;;;10281731;28;20068;-68
2022/09/25 10:23:30;;;;;;;4.35;3.95;;;;;;;;;;10237236;28;1113148;-68
2022/09/25 10:28:30;;;;;;;4.18;3.45;;;;;;;;;;10283488;28;20103;-69
2022/09/25 10:33:30;;;;;;;3.42;2.88;;;;;;;;;;10287906;28;20577;-68
2022/09/25 10:38:32;;;;;;;6.68;4.50;;;;;;;;;;10282066;28;20075;-68
2022/09/25 10:43:30;;;;;;;5.10;3.00;;;;;;;;;;10287659;28;20060;-68
2022/09/25 10:53:49;;;;;;;4.43;3.72;;;;;;;;;;10285090;28;20065;-68
2022/09/25 10:58:50;;;;;;;7.15;3.80;;;;;;;;;;10284791;28;20349;-68
2022/09/25 11:03:52;;;;;;;5.30;3.25;;;;;;;;;;10281146;28;20074;-69
2022/09/25 11:08:55;;;;;;;4.35;2.65;;;;;;;;;;10291298;28;20083;-69
2022/09/25 11:13:54;;;;;;;6.28;3.63;;;;;;;;;;10280158;28;20084;-68
2022/09/25 11:19:05;;;;;;;10.90;3.25;;;;;;;;;;10287296;28;20095;-67
2022/09/25 11:24:08;;;;;;;3.10;2.75;;;;;;;;;;10283348;28;20076;-69
2022/09/25 11:29:10;;;;;;;6.90;3.22;;;;;;;;;;10285058;28;20079;-69
2022/09/25 11:34:13;;;;;;;3.95;2.95;;;;;;;;;;10282555;28;20111;-68
2022/09/25 11:44:34;;;;;;;4.53;2.95;;;;;;;;;;10286018;28;20186;-68
2022/09/25 11:49:36;;;;;;;3.45;2.70;;;;;;;;;;10283881;28;20071;-68
2022/09/25 11:54:40;;;;;;;3.10;2.50;;;;;;;;;;10285225;28;20091;-68
2022/09/25 11:59:46;;;;;;;5.45;2.25;;;;;;;;;;10285374;28;20056;-68
2022/09/25 12:04:55;;;;;;;3.88;3.47;;;;;;;;;;10275996;28;20081;-68
2022/09/25 12:10:07;;;;;;;6.05;4.30;;;;;;;;;;10275720;28;20485;-68
2022/09/25 12:15:10;;;;;;;3.83;3.47;;;;;;;;;;10285268;28;20525;-68
2022/09/25 12:20:19;;;;;;;5.55;3.33;;;;;;;;;;10282019;28;20088;-69
2022/09/25 12:25:25;;;;;;;4.78;3.20;;;;;;;;;;10282196;28;20076;-68
2022/09/25 12:30:25;;;;;;;6.35;3.20;;;;;;;;;;10281844;28;20126;-68
2022/09/25 12:35:32;;;;;;;6.18;2.50;;;;;;;;;;10287897;28;20068;-69
2022/09/25 12:40:33;;;;;;;3.65;2.70;;;;;;;;;;10274415;28;20081;-69
2022/09/25 12:45:50;;;;;;;4.13;3.05;;;;;;;;;;10285286;28;20084;-68
2022/09/25 12:51:07;;;;;;;4.57;2.45;;;;;;;;;;10276689;28;20485;-68
2022/09/25 12:56:11;;;;;;;5.40;2.42;;;;;;;;;;10278140;28;20601;-68
2022/09/25 13:01:11;;;;;;;4.20;3.03;;;;;;;;;;10275466;28;20541;-68
2022/09/25 13:06:14;;;;;;;8.02;3.45;;;;;;;;;;10278731;28;20898;-68
2022/09/25 13:11:14;;;;;;;2.50;2.30;;;;;;;;;;10297374;28;20072;-68
2022/09/25 13:16:14;;;;;;;7.38;4.85;;;;;;;;;;10292243;28;20471;-68
2022/09/25 13:21:24;;;;;;;4.00;2.70;;;;;;;;;;10303139;28;20083;-67
2022/09/25 13:26:23;;;;;;;2.88;2.15;;;;;;;;;;10279966;28;20514;-68
2022/09/25 13:31:23;;;;;;;3.72;2.95;;;;;;;;;;10276433;28;20073;-69
2022/09/25 13:36:37;;;;;;;5.15;3.22;;;;;;;;;;10281675;28;20091;-68
2022/09/25 13:41:35;;;;;;;4.07;3.13;;;;;;;;;;10279614;28;20087;-69
2022/09/25 13:46:36;;;;;;;3.75;2.42;;;;;;;;;;10280972;28;20061;-69
2022/09/25 13:51:36;;;;;;;4.53;3.50;;;;;;;;;;10282920;28;20072;-68
2022/09/25 13:56:48;;;;;;;4.45;2.70;;;;;;;;;;10294158;28;20052;-68
2022/09/25 14:01:48;;;;;;;2.58;2.38;;;;;;;;;;10286251;28;20099;-68
2022/09/25 14:06:52;;;;;;;6.68;4.63;;;;;;;;;;10286742;28;20076;-67
2022/09/25 14:12:04;;;;;;;8.30;5.00;;;;;;;;;;10285741;28;20073;-68
2022/09/25 14:17:04;;;;;;;4.43;4.03;;;;;;;;;;10287175;28;20077;-69
2022/09/25 14:22:07;;;;;;;8.05;6.07;;;;;;;;;;10287063;28;20080;-69
2022/09/25 14:27:22;;;;;;;4.22;2.55;;;;;;;;;;10285509;28;20103;-69
2022/09/25 14:32:29;;;;;;;4.80;4.15;;;;;;;;;;10286386;28;20087;-67
2022/09/25 14:37:58;;;;;;;7.47;4.35;;;;;;;;;;10285901;28;20080;-69
2022/09/25 14:43:13;;;;;;;8.35;4.93;;;;;;;;;;10285954;28;20435;-69
2022/09/25 14:48:14;;;;;;;4.68;4.15;;;;;;;;;;10286409;28;20072;-69
2022/09/25 14:53:18;;;;;;;6.38;5.10;;;;;;;;;;10285232;28;20076;-68
2022/09/25 14:58:18;;;;;;;4.50;3.60;;;;;;;;;;10283889;28;20891;-69
2022/09/25 15:03:19;;;;;;;3.80;3.28;;;;;;;;;;10291249;28;20167;-69
2022/09/25 15:08:23;;;;;;;5.07;3.75;;;;;;;;;;10296117;28;20029;-69
2022/09/25 15:13:21;;;;;;;3.35;2.92;;;;;;;;;;10281680;28;20510;-69
2022/09/25 15:18:19;;;;;;;17.67;5.60;;;;;;;;;;10285548;28;20041;-68
2022/09/25 15:23:18;;;;;;;6.68;5.53;;;;;;;;;;10282397;28;20521;-69
2022/09/25 15:28:19;;;;;;;16.27;8.10;;;;;;;;;;10290579;28;20041;-69
2022/09/25 15:33:21;;;;;;;17.63;8.65;;;;;;;;;;10281729;28;20526;-69
2022/09/25 15:38:19;;;;;;;10.18;5.70;;;;;;;;;;10283656;28;20065;-68
2022/09/25 15:43:18;;;;;;;8.32;4.55;;;;;;;;;;10283980;28;20088;-68
2022/09/25 15:48:20;;;;;;;5.88;5.05;;;;;;;;;;10281590;28;20037;-68
2022/09/25 15:53:23;;;;;;;18.00;12.35;;;;;;;;;;10283033;28;20069;-68
2022/09/25 15:58:23;;;;;;;36.15;27.63;;;;;;;;;;10284095;28;20076;-68
2022/09/25 16:08:39;;;;;;;16.65;12.77;;;;;;;;;;10283702;28;20075;-68
2022/09/25 16:13:39;;;;;;;10.40;6.75;;;;;;;;;;10281905;28;20187;-68
2022/09/25 16:18:41;;;;;;;13.73;10.50;;;;;;;;;;10282425;28;20069;-69
2022/09/25 16:23:41;;;;;;;11.90;10.13;;;;;;;;;;10275522;28;20626;-68
2022/09/25 16:28:47;;;;;;;20.40;14.90;;;;;;;;;;10282252;28;20037;-68
2022/09/25 16:33:49;;;;;;;24.38;21.10;;;;;;;;;;10284197;28;20068;-68
2022/09/25 16:39:04;;;;;;;40.30;29.48;;;;;;;;;;10287291;28;20080;-68
2022/09/25 16:44:12;;;;;;;23.30;20.55;;;;;;;;;;10288275;28;20052;-68
2022/09/25 16:49:12;;;;;;;9.90;8.90;;;;;;;;;;10298186;28;20041;-67
2022/09/25 16:54:11;;;;;;;16.70;14.15;;;;;;;;;;10285841;28;20080;-68
2022/09/25 16:59:16;;;;;;;12.95;10.02;;;;;;;;;;10286166;28;20111;-68
2022/09/25 17:04:15;;;;;;;11.45;8.52;;;;;;;;;;10288867;28;20068;-68
2022/09/25 17:09:14;;;;;;;23.70;20.00;;;;;;;;;;10295822;28;20064;-69
2022/09/25 17:14:19;;;;;;;13.40;9.88;;;;;;;;;;10294087;28;20084;-68
2022/09/25 17:19:18;;;;;;;10.02;7.75;;;;;;;;;;10295189;28;20068;-68
2022/09/25 17:24:16;;;;;;;6.25;3.90;;;;;;;;;;10281479;28;20079;-68
2022/09/25 17:29:16;;;;;;;5.35;3.80;;;;;;;;;;10286987;28;20075;-68
2022/09/25 17:34:16;;;;;;;9.20;7.07;;;;;;;;;;10294411;28;20084;-68
2022/09/25 17:39:14;;;;;;;11.57;8.80;;;;;;;;;;10294072;28;20533;-68
2022/09/25 17:44:15;;;;;;;6.85;4.38;;;;;;;;;;10279072;28;20084;-68
2022/09/25 17:49:15;;;;;;;8.82;4.53;;;;;;;;;;10286412;28;20034;-68
2022/09/25 17:54:13;;;;;;;13.85;10.68;;;;;;;;;;10286992;28;20065;-68
2022/09/25 17:59:12;;;;;;;18.98;13.18;;;;;;;;;;10286661;28;20143;-68
2022/09/25 18:04:19;;;;;;;8.27;6.32;;;;;;;;;;10294666;28;20071;-67
2022/09/25 18:09:17;;;;;;;4.18;3.15;;;;;;;;;;10299001;28;20083;-67
2022/09/25 18:14:16;;;;;;;4.30;3.58;;;;;;;;;;10296151;28;20072;-68
2022/09/25 18:24:32;;;;;;;5.53;2.90;;;;;;;;;;10300291;28;20075;-68
2022/09/25 18:29:30;;;;;;;6.70;3.13;;;;;;;;;;10298514;28;20080;-68
2022/09/25 18:34:28;;;;;;;3.20;2.88;;;;;;;;;;10291193;28;20072;-66
2022/09/25 18:39:27;;;;;;;6.05;2.58;;;;;;;;;;10279443;28;20068;-67
2022/09/25 18:44:27;;;;;;;5.93;2.92;;;;;;;;;;10286029;28;20080;-67
2022/09/25 18:49:27;;;;;;;6.85;2.80;;;;;;;;;;10293289;28;20068;-67
2022/09/25 18:54:28;;;;;;;4.60;2.75;;;;;;;;;;10285262;28;20083;-67
2022/09/25 18:59:27;;;;;;;3.80;2.97;;;;;;;;;;10295475;28;20076;-67
2022/09/25 19:04:26;;;;;;;4.22;2.95;;;;;;;;;;10302344;28;20091;-67
2022/09/25 19:09:26;;;;;;;3.85;2.83;;;;;;;;;;10286915;28;20079;-66
2022/09/25 19:14:24;;;;;;;3.47;3.15;;;;;;;;;;10292135;28;20079;-67
2022/09/25 19:19:24;;;;;;;4.25;3.75;;;;;;;;;;10289726;28;20060;-68
2022/09/25 19:24:22;;;;;;;5.25;3.97;;;;;;;;;;10290110;28;20095;-67
2022/09/25 19:29:20;;;;;;;3.50;2.65;;;;;;;;;;10296893;28;20068;-68
2022/09/25 19:34:19;;;;;;;4.20;3.00;;;;;;;;;;10301002;28;20075;-67
2022/09/25 19:39:18;;;;;;;6.35;2.55;;;;;;;;;;10297028;28;20064;-67
2022/09/25 19:44:17;;;;;;;4.75;2.50;;;;;;;;;;10293041;28;20463;-67
2022/09/25 19:49:17;;;;;;;2.95;2.67;;;;;;;;;;10299885;28;20841;-67
2022/09/25 19:54:15;;;;;;;9.07;3.13;;;;;;;;;;10297431;28;20075;-67
2022/09/25 19:59:16;;;;;;;5.30;3.05;;;;;;;;;;10299350;28;20136;-66
2022/09/25 20:04:14;;;;;;;5.22;3.80;;;;;;;;;;10297212;28;20536;-67
2022/09/25 20:09:16;;;;;;;3.88;3.47;;;;;;;;;;10297951;28;20817;-66
2022/09/25 20:14:19;;;;;;;3.30;2.55;;;;;;;;;;10293884;28;20080;-66
2022/09/25 20:19:18;;;;;;;3.42;2.50;;;;;;;;;;10296651;28;20068;-67
2022/09/25 20:24:18;;;;;;;4.28;3.00;;;;;;;;;;10291550;28;20083;-68
2022/09/25 20:29:18;;;;;;;2.70;2.45;;;;;;;;;;10305844;28;20095;-67
2022/09/25 20:34:18;;;;;;;2.90;2.60;;;;;;;;;;10300863;28;20080;-67
2022/09/25 20:39:16;;;;;;;5.05;2.50;;;;;;;;;;10307961;28;20072;-67
2022/09/25 20:44:19;;;;;;;5.22;2.50;;;;;;;;;;10300033;28;20059;-67
2022/09/25 20:49:19;;;;;;;5.30;2.45;;;;;;;;;;10291825;28;20073;-67
2022/09/25 20:54:17;;;;;;;4.10;2.72;;;;;;;;;;10292108;28;20076;-67
2022/09/25 20:59:16;;;;;;;3.03;2.70;;;;;;;;;;10290431;28;20513;-67
2022/09/25 21:04:18;;;;;;;3.30;2.78;;;;;;;;;;10290574;28;20079;-67
2022/09/25 21:09:19;;;;;;;3.45;2.63;;;;;;;;;;10299995;28;20040;-67
2022/09/25 21:14:18;;;;;;;3.03;2.63;;;;;;;;;;10292457;28;20080;-67
2022/09/25 21:19:19;;;;;;;5.57;2.70;;;;;;;;;;10283191;28;20076;-67
2022/09/25 21:24:18;;;;;;;2.92;2.60;;;;;;;;;;10296365;28;20084;-67
2022/09/25 21:29:17;;;;;;;4.07;2.63;;;;;;;;;;10289130;28;20076;-67
2022/09/25 21:34:15;;;;;;;3.00;2.53;;;;;;;;;;10293719;28;20505;-67
2022/09/25 21:39:15;;;;;;;3.28;2.72;;;;;;;;;;10291818;28;20076;-68
2022/09/25 21:44:15;;;;;;;3.53;2.97;;;;;;;;;;10297270;28;20082;-67
2022/09/25 21:49:15;;;;;;;3.70;2.90;;;;;;;;;;10290075;28;20512;-67
2022/09/25 21:54:15;;;;;;;3.95;2.58;;;;;;;;;;10293349;28;20068;-67
2022/09/25 21:59:16;;;;;;;3.45;2.72;;;;;;;;;;10295362;28;20049;-68
2022/09/25 22:04:15;;;;;;;3.80;2.53;;;;;;;;;;10284658;28;20080;-67
2022/09/25 22:09:15;;;;;;;2.70;2.50;;;;;;;;;;10305032;28;20083;-67
2022/09/25 22:14:18;;;;;;;2.72;2.53;;;;;;;;;;10288586;28;20121;-68
2022/09/25 22:19:23;;;;;;;2.92;2.63;;;;;;;;;;10286943;28;20088;-67
2022/09/25 22:24:23;;;;;;;4.38;2.95;;;;;;;;;;10288573;28;20092;-67
2022/09/25 22:29:22;;;;;;;7.13;2.80;;;;;;;;;;10288228;28;20072;-67
2022/09/25 22:34:21;;;;;;;3.58;3.15;;;;;;;;;;10301408;28;20076;-67
2022/09/25 22:39:20;;;;;;;3.50;3.03;;;;;;;;;;10285562;28;20194;-67
2022/09/25 22:44:20;;;;;;;4.10;3.00;;;;;;;;;;10286198;28;20114;-67
2022/09/25 22:49:18;;;;;;;5.45;3.53;;;;;;;;;;10285343;28;20071;-67
2022/09/25 22:54:16;;;;;;;4.55;3.28;;;;;;;;;;10286737;28;20085;-67
2022/09/25 22:59:16;;;;;;;8.63;3.08;;;;;;;;;;10284873;28;20076;-67
2022/09/25 23:04:17;;;;;;;4.15;2.95;;;;;;;;;;10288749;28;20099;-67
2022/09/25 23:09:16;;;;;;;3.53;2.88;;;;;;;;;;10292697;28;20087;-68
2022/09/25 23:14:15;;;;;;;7.10;3.00;;;;;;;;;;10291640;28;20080;-69
2022/09/25 23:19:14;;;;;;;4.97;3.30;;;;;;;;;;10284692;28;20537;-67
2022/09/25 23:24:15;;;;;;;5.13;3.35;;;;;;;;;;10283022;28;20458;-68
2022/09/25 23:29:14;;;;;;;4.65;3.60;;;;;;;;;;10283721;28;20075;-68
2022/09/25 23:34:12;;;;;;;6.28;3.08;;;;;;;;;;10289043;28;20075;-67
2022/09/25 23:39:14;;;;;;;3.33;2.92;;;;;;;;;;10285210;28;20564;-67
2022/09/25 23:44:14;;;;;;;4.30;3.30;;;;;;;;;;10287932;28;20505;-67
2022/09/25 23:49:12;;;;;;;3.50;3.00;;;;;;;;;;10282589;28;20079;-67
2022/09/25 23:54:11;;;;;;;3.45;3.15;;;;;;;;;;10283214;28;20079;-67
2022/09/25 23:59:10;;;;;;;3.10;2.80;;;;;;;;;;10283014;28;20072;-67
